ケアンズ の空港の天気 - METARとTAF

ケアンズ国際空港 ( YBCS / CNS ) - オーストラリア クイーンズランド州ケアンズ
飛行場実況気象(Metar)
観測時間08/19 00:00 AEST (08/18 14:00 UTC)
風向・風速南南東 2m/s
視程10km以上
天気現象
なし
気温17℃
湿度72%
気圧1018hPa
METARYBCS 181400Z AUTO 15004KT 9999 // NCD 17/12 Q1018
過去の天気等 Google飛行場航空写真 Wunderground天気予報

過去48時間のMETAR

飛行場予報(TAF)
発表時間: 8/18 21:07 AEST (8/18 11:07 UTC)
予報対象時間: 18日22時 AEST ~ 19日22時 AEST
風向・風速南 4m/s
視程10km以上
少しの雲 雲底高度 910m
19日11時 AEST から
風向・風速東 5m/s
視程10km以上
全天の4割程度の雲 雲底高度 1220m
19日18時 AEST から
風向・風速南 4m/s
視程10km以上
少しの雲 雲底高度 910m
TAF YBCS 181107Z 1812/1912 18007KT 9999 FEW030
FM190100 09010KT 9999 SCT040
FM190800 17007KT 9999 FEW030